Aviation Digital Data Service (ADDS)

Output produced by METARs form (1130 UTC 24 April 2014)
found at http://www.aviationweather.gov/adds/metars/
 
KBMI 240520Z 2406/2506 09008KT P6SM FEW110 
     FM241500 14019G30KT P6SM BKN090 
     FM242000 17018G28KT P6SM VCSH OVC060 
     FM250000 15016G26KT 4SM -RA VCTS OVC035CB